createdAt,value
2017-03-04T00:00:42.243Z,43.2
2017-03-04T00:03:14.705Z,43.2
2017-03-04T00:05:47.177Z,43.2
2017-03-04T00:08:20.070Z,43.2
2017-03-04T00:10:52.586Z,43.3
2017-03-04T00:13:25.067Z,43.2
2017-03-04T00:15:57.560Z,43.3
2017-03-04T00:18:30.023Z,43.2
2017-03-04T00:21:02.937Z,43.2
2017-03-04T00:23:35.859Z,43.2
2017-03-04T00:26:08.328Z,43.2
2017-03-04T00:28:40.837Z,43.2
2017-03-04T00:31:13.349Z,43.2
2017-03-04T00:33:45.844Z,43.2
2017-03-04T00:36:18.762Z,43.2
2017-03-04T00:38:51.249Z,43.2
2017-03-04T00:41:23.701Z,43.2
2017-03-04T00:43:56.197Z,43.2
2017-03-04T00:46:28.708Z,43.2
2017-03-04T00:49:01.202Z,43.2
2017-03-04T00:51:34.525Z,43.1
2017-03-04T00:54:06.990Z,43.2
2017-03-04T00:56:39.480Z,43.2
2017-03-04T00:59:12.391Z,43.2
2017-03-04T01:01:44.872Z,43.2
2017-03-04T01:04:17.773Z,43.1
2017-03-04T01:06:50.456Z,43.1
2017-03-04T01:09:23.160Z,43.2
2017-03-04T01:11:56.086Z,43.2
2017-03-04T01:14:29.012Z,43.1
2017-03-04T01:17:02.557Z,43.1
2017-03-04T01:19:35.227Z,43.1
2017-03-04T01:22:07.724Z,43.1
2017-03-04T01:24:40.198Z,43.1
2017-03-04T01:27:12.666Z,43.1
2017-03-04T01:29:45.588Z,43.1
2017-03-04T01:32:18.066Z,43.1
2017-03-04T01:34:50.554Z,43.1
2017-03-04T01:37:23.468Z,43.1
2017-03-04T01:39:56.417Z,43.1
2017-03-04T01:42:29.332Z,43.1
2017-03-04T01:45:01.838Z,43.1
2017-03-04T01:47:34.309Z,43.1
2017-03-04T01:50:08.061Z,43.1
2017-03-04T01:52:40.988Z,43.1
2017-03-04T01:55:13.457Z,43.2
2017-03-04T01:57:45.939Z,43.1
2017-03-04T02:00:18.421Z,43.1
2017-03-04T02:02:50.891Z,43.1
2017-03-04T02:05:23.525Z,43.1
2017-03-04T02:07:56.850Z,43.1
2017-03-04T02:10:29.357Z,43.1
2017-03-04T02:13:01.845Z,43.1
2017-03-04T02:15:34.755Z,43.1
2017-03-04T02:18:07.225Z,43.1
2017-03-04T02:20:39.731Z,43.1
2017-03-04T02:23:12.184Z,43.1
2017-03-04T02:25:44.677Z,43.1
2017-03-04T02:28:17.154Z,43.1
2017-03-04T02:30:49.672Z,43.1
2017-03-04T02:33:22.565Z,43.1
2017-03-04T02:35:55.044Z,43.1
2017-03-04T02:38:27.508Z,43.1
2017-03-04T02:41:00.008Z,43.1
2017-03-04T02:43:32.698Z,43.1
2017-03-04T02:46:05.183Z,43.1
2017-03-04T02:48:38.097Z,43.1
2017-03-04T02:51:11.006Z,43.1
2017-03-04T02:53:43.488Z,43.1
2017-03-04T02:56:15.986Z,43.1
2017-03-04T02:58:48.460Z,43.1
2017-03-04T03:01:20.966Z,43.1
2017-03-04T03:03:53.871Z,43.1
2017-03-04T03:06:26.366Z,43.1
2017-03-04T03:08:59.291Z,43.1
2017-03-04T03:11:32.195Z,43.1
2017-03-04T03:14:04.681Z,43.1
2017-03-04T03:16:37.162Z,43.1
2017-03-04T03:19:09.645Z,43.1
2017-03-04T03:21:42.109Z,43.1
2017-03-04T03:24:14.598Z,43.1
2017-03-04T03:26:47.554Z,43.1
2017-03-04T03:29:20.457Z,43.1
2017-03-04T03:31:52.923Z,43.2
2017-03-04T03:34:25.410Z,43.2
2017-03-04T03:36:57.906Z,43.1
2017-03-04T03:39:30.390Z,43.2
2017-03-04T03:42:02.878Z,43.1
2017-03-04T03:44:35.384Z,43.2
2017-03-04T03:47:07.870Z,43.2
2017-03-04T03:49:40.990Z,43.1
2017-03-04T03:52:13.483Z,43.1
2017-03-04T03:54:45.963Z,43.1
2017-03-04T03:57:18.439Z,43.1
2017-03-04T03:59:50.913Z,43.2
2017-03-04T04:02:24.276Z,43.1
2017-03-04T04:04:56.729Z,43.1
2017-03-04T04:07:30.059Z,43.1
2017-03-04T04:10:02.545Z,43
2017-03-04T04:12:35.072Z,43
2017-03-04T04:15:07.994Z,43.2
2017-03-04T04:17:40.892Z,43.1
2017-03-04T04:20:13.376Z,43.1
2017-03-04T04:22:45.878Z,43.1
2017-03-04T04:25:18.354Z,43.1
2017-03-04T04:27:50.832Z,43.1
2017-03-04T04:30:23.317Z,43.1
2017-03-04T04:32:55.806Z,43.1
2017-03-04T04:35:28.290Z,43.1
2017-03-04T04:38:00.769Z,43
2017-03-04T04:40:33.710Z,43.1
2017-03-04T04:43:06.834Z,43.1
2017-03-04T04:45:39.303Z,43.1
2017-03-04T04:48:11.800Z,43.1
2017-03-04T04:50:44.290Z,43.1
2017-03-04T04:53:17.211Z,43.1
2017-03-04T04:55:49.680Z,43.1
2017-03-04T04:58:22.175Z,43.1
2017-03-04T05:00:54.653Z,43.1
2017-03-04T05:03:27.141Z,43.1
2017-03-04T05:05:59.640Z,43.1
2017-03-04T05:08:32.327Z,43
2017-03-04T05:11:04.854Z,43.1
2017-03-04T05:13:37.550Z,43
2017-03-04T05:16:10.053Z,43.1
2017-03-04T05:18:42.545Z,43.1
2017-03-04T05:21:15.222Z,43
2017-03-04T05:23:47.713Z,43.1
2017-03-04T05:26:20.615Z,43.1
2017-03-04T05:28:53.082Z,43.1
2017-03-04T05:31:25.590Z,43.1
2017-03-04T05:33:58.497Z,43.1
2017-03-04T05:36:30.982Z,43.1
2017-03-04T05:39:03.478Z,43.1
2017-03-04T05:41:35.936Z,43.1
2017-03-04T05:44:08.862Z,43.1
2017-03-04T05:46:41.336Z,43.2
2017-03-04T05:49:13.828Z,43.1
2017-03-04T05:51:46.336Z,43.2
2017-03-04T05:54:18.835Z,42.8
2017-03-04T05:56:51.753Z,40
2017-03-04T05:59:24.252Z,38.8
2017-03-04T06:01:56.742Z,38.3
2017-03-04T06:04:29.217Z,37.2
2017-03-04T06:07:02.128Z,36.7
2017-03-04T06:09:34.628Z,36.4
2017-03-04T06:12:07.099Z,36.2
2017-03-04T06:14:40.021Z,37.7
2017-03-04T06:17:12.509Z,39.5
2017-03-04T06:19:44.970Z,40.1
2017-03-04T06:22:17.879Z,40.4
2017-03-04T06:24:50.384Z,40.8
2017-03-04T06:27:22.872Z,41
2017-03-04T06:29:55.384Z,41.2
2017-03-04T06:32:27.871Z,41.5
2017-03-04T06:35:47.142Z,41.8
2017-03-04T06:38:27.671Z,41.9
2017-03-04T06:41:00.161Z,41.9
2017-03-04T06:43:33.487Z,41.9
2017-03-04T06:46:05.973Z,42
2017-03-04T06:48:43.402Z,42
2017-03-04T06:51:38.119Z,42.1
2017-03-04T06:54:52.571Z,42.2
2017-03-04T06:58:30.114Z,42.2
2017-03-04T07:01:04.923Z,42.3
2017-03-04T07:03:37.427Z,42.3
2017-03-04T07:06:09.927Z,42.5
2017-03-04T07:08:42.458Z,42.4
2017-03-04T07:11:14.997Z,42.4
2017-03-04T07:13:47.594Z,42.5
2017-03-04T07:16:20.511Z,42.5
2017-03-04T07:18:53.448Z,42.5
2017-03-04T07:21:25.962Z,42.6
2017-03-04T07:23:58.452Z,42.6
2017-03-04T07:26:31.029Z,42.6
2017-03-04T07:29:03.529Z,42.7
2017-03-04T07:31:36.144Z,42.7
2017-03-04T07:34:08.645Z,42.7
2017-03-04T07:36:41.264Z,42.7
2017-03-04T07:39:14.373Z,42.7
2017-03-04T07:41:46.843Z,42.8
2017-03-04T07:44:34.788Z,42.8
2017-03-04T07:47:07.534Z,42.8
2017-03-04T07:49:40.193Z,42.9
2017-03-04T07:52:13.090Z,42.9
2017-03-04T07:54:45.999Z,42.9
2017-03-04T07:57:19.104Z,42.9
2017-03-04T07:59:52.331Z,42.9
2017-03-04T08:02:24.818Z,43
2017-03-04T08:04:57.315Z,43
2017-03-04T08:07:29.793Z,42.9
2017-03-04T08:10:03.451Z,43
2017-03-04T08:12:36.352Z,43
2017-03-04T08:15:08.836Z,43
2017-03-04T08:17:41.313Z,43.1
2017-03-04T08:20:14.238Z,43.1
2017-03-04T08:22:47.161Z,43.1
2017-03-04T08:25:20.101Z,43.2
2017-03-04T08:27:53.064Z,43.2
2017-03-04T08:30:25.729Z,43.3
2017-03-04T08:32:58.230Z,43.3
2017-03-04T08:35:30.724Z,43.3
2017-03-04T08:38:03.619Z,43.3
2017-03-04T08:40:36.116Z,43.3
2017-03-04T08:43:08.623Z,43.3
2017-03-04T08:45:41.719Z,43.3
2017-03-04T08:48:14.854Z,43.3
2017-03-04T08:50:47.772Z,43.2
2017-03-04T08:53:20.677Z,43.3
2017-03-04T08:55:53.582Z,43.2
2017-03-04T08:58:26.082Z,43.2
2017-03-04T09:00:59.430Z,43.2
2017-03-04T09:03:31.911Z,43.1
2017-03-04T09:06:04.910Z,43.2
2017-03-04T09:08:37.851Z,43.2
2017-03-04T09:11:10.329Z,43.2
2017-03-04T09:13:42.825Z,43.2
2017-03-04T09:16:16.176Z,43.1
2017-03-04T09:18:48.652Z,43.1
2017-03-04T09:21:21.132Z,43.2
2017-03-04T09:23:53.621Z,43.1
2017-03-04T09:26:26.131Z,43.2
2017-03-04T09:28:58.626Z,43.2
2017-03-04T09:31:31.966Z,43.2
2017-03-04T09:34:04.447Z,43.2
2017-03-04T09:36:36.935Z,43.2
2017-03-04T09:39:09.415Z,43.3
2017-03-04T09:41:42.348Z,43.3
2017-03-04T09:44:15.258Z,43.3
2017-03-04T09:46:47.746Z,43.3
2017-03-04T09:49:20.207Z,43.3
2017-03-04T09:51:53.137Z,43.3
2017-03-04T09:54:25.611Z,43.4
2017-03-04T09:56:58.576Z,43.4
2017-03-04T09:59:31.282Z,43.4
2017-03-04T10:02:03.776Z,43.4
2017-03-04T10:04:36.257Z,43.4
2017-03-04T10:07:08.752Z,43.4
2017-03-04T10:09:41.216Z,43.4
2017-03-04T10:12:13.702Z,43.3
2017-03-04T10:14:46.184Z,43.4
2017-03-04T10:17:18.679Z,43.4
2017-03-04T10:19:51.985Z,43.4
2017-03-04T10:22:24.506Z,43.5
2017-03-04T10:24:57.016Z,43.4
2017-03-04T10:27:29.505Z,43.5
2017-03-04T10:30:02.001Z,43.4
2017-03-04T10:32:35.770Z,43.4
2017-03-04T10:35:08.249Z,43.5
2017-03-04T10:37:40.746Z,43.4
2017-03-04T10:40:13.659Z,43.4
2017-03-04T10:42:46.566Z,43.4
2017-03-04T10:45:19.918Z,43.4
2017-03-04T10:47:52.606Z,43.4
2017-03-04T10:50:25.102Z,43.4
2017-03-04T10:52:58.020Z,43.5
2017-03-04T10:55:30.512Z,43.4
2017-03-04T10:58:02.994Z,43.5
2017-03-04T11:00:35.494Z,43.4
2017-03-04T11:03:07.958Z,43.4
2017-03-04T11:05:40.857Z,43.4
2017-03-04T11:08:13.328Z,43.4
2017-03-04T11:10:46.231Z,43.4
2017-03-04T11:13:18.727Z,43.4
2017-03-04T11:15:51.421Z,43.5
2017-03-04T11:18:23.904Z,43.5
2017-03-04T11:20:56.820Z,43.5
2017-03-04T11:23:29.309Z,43.5
2017-03-04T11:26:01.789Z,43.5
2017-03-04T11:28:34.301Z,43.5
2017-03-04T11:31:07.634Z,43.5
2017-03-04T11:33:40.944Z,43.6
2017-03-04T11:36:13.450Z,43.5
2017-03-04T11:38:46.388Z,43.5
2017-03-04T11:41:18.872Z,43.6
2017-03-04T11:43:51.361Z,43.5
2017-03-04T11:46:23.842Z,43.6
2017-03-04T11:48:56.331Z,43.6
2017-03-04T11:51:28.808Z,43.6
2017-03-04T11:54:02.779Z,43.6
2017-03-04T11:56:35.264Z,43.6
2017-03-04T11:59:07.759Z,43.5
2017-03-04T12:01:40.685Z,43.6
2017-03-04T12:04:13.152Z,43.6
2017-03-04T12:06:45.642Z,43.6
2017-03-04T12:09:18.123Z,43.5
2017-03-04T12:11:51.060Z,43.5
2017-03-04T12:14:23.581Z,43.4
2017-03-04T12:16:56.062Z,43.6
2017-03-04T12:19:28.584Z,43.4
2017-03-04T12:22:01.491Z,42.7
2017-03-04T12:24:34.004Z,42.8
2017-03-04T12:27:06.930Z,43.2
2017-03-04T12:29:39.845Z,43.7
2017-03-04T12:32:12.390Z,44.2
2017-03-04T12:34:44.859Z,44.4
2017-03-04T12:37:17.371Z,44.8
2017-03-04T12:39:49.853Z,45.2
2017-03-04T12:42:22.350Z,45.3
2017-03-04T12:44:55.268Z,45.1
2017-03-04T12:47:27.747Z,45.7
2017-03-04T12:50:00.655Z,45.7
2017-03-04T12:52:33.145Z,45.5
2017-03-04T12:55:06.116Z,45.5
2017-03-04T12:57:38.613Z,45.9
2017-03-04T13:00:29.166Z,46
2017-03-04T13:03:08.230Z,45.7
2017-03-04T13:06:02.251Z,45.7
2017-03-04T13:09:20.484Z,45.6
2017-03-04T13:12:43.182Z,45.5
2017-03-04T13:16:11.468Z,45.5
2017-03-04T13:19:27.673Z,45.6
2017-03-04T13:22:42.551Z,45.8
2017-03-04T13:26:02.940Z,45.9
2017-03-04T13:29:27.944Z,47.8
2017-03-04T13:32:54.463Z,47.7
2017-03-04T13:36:09.944Z,47.4
2017-03-04T13:39:17.599Z,46.6
2017-03-04T13:42:42.392Z,45.8
2017-03-04T13:45:47.318Z,45.7
2017-03-04T13:48:54.154Z,46
2017-03-04T13:52:06.241Z,46.3
2017-03-04T13:55:06.734Z,46.3
2017-03-04T13:58:20.259Z,46.5
2017-03-04T14:01:39.395Z,46.6
2017-03-04T14:04:47.694Z,46
2017-03-04T14:07:42.331Z,45
2017-03-04T14:10:53.888Z,44.3
2017-03-04T14:13:27.186Z,44
2017-03-04T14:15:59.801Z,43.7
2017-03-04T14:18:32.370Z,43.5
2017-03-04T14:21:05.364Z,43.4
2017-03-04T14:23:38.853Z,43.3
2017-03-04T14:26:12.266Z,43.3
2017-03-04T14:28:46.051Z,43.3
2017-03-04T14:31:22.407Z,43.3
2017-03-04T14:33:57.514Z,43.1
2017-03-04T14:36:33.466Z,43.1
2017-03-04T14:39:07.004Z,43.1
2017-03-04T14:41:39.671Z,43
2017-03-04T14:44:12.787Z,43
2017-03-04T14:46:47.126Z,43
2017-03-04T14:49:21.089Z,43
2017-03-04T14:51:59.400Z,43
2017-03-04T14:54:37.637Z,43.1
2017-03-04T14:57:21.545Z,43.1
2017-03-04T14:59:56.355Z,43.1
2017-03-04T15:02:51.528Z,43.1
2017-03-04T15:05:57.928Z,43.2
2017-03-04T15:08:51.840Z,43.2
2017-03-04T15:11:48.781Z,43.3
2017-03-04T15:14:39.398Z,43.7
2017-03-04T15:17:25.835Z,44.2
2017-03-04T15:20:38.828Z,44.6
2017-03-04T15:24:01.193Z,44.7
2017-03-04T15:27:25.102Z,44.9
2017-03-04T15:30:35.368Z,45
2017-03-04T15:33:52.697Z,45.1
2017-03-04T15:37:24.100Z,44.6
2017-03-04T15:40:53.315Z,43.9
2017-03-04T15:44:22.479Z,43.6
2017-03-04T15:47:44.821Z,43.6
2017-03-04T15:51:13.709Z,43.5
2017-03-04T15:54:32.391Z,43.5
2017-03-04T15:58:05.258Z,42.9
2017-03-04T16:01:33.456Z,43.5
2017-03-04T16:04:41.517Z,44.1
2017-03-04T16:08:08.186Z,44.5
2017-03-04T16:10:45.721Z,45
2017-03-04T16:13:21.047Z,45.3
2017-03-04T16:15:55.260Z,45.4
2017-03-04T16:18:28.698Z,45.3
2017-03-04T16:21:02.105Z,45.4
2017-03-04T16:23:35.122Z,45.4
2017-03-04T16:26:07.727Z,45.4
2017-03-04T16:28:40.697Z,45.4
2017-03-04T16:31:13.399Z,45.4
2017-03-04T16:33:46.076Z,45.4
2017-03-04T16:36:19.428Z,45.4
2017-03-04T16:38:53.185Z,45.5
2017-03-04T16:41:26.885Z,45.3
2017-03-04T16:43:59.643Z,45.2
2017-03-04T16:46:33.003Z,45.1
2017-03-04T16:49:06.938Z,45.1
2017-03-04T16:51:41.304Z,45.1
2017-03-04T16:54:14.577Z,45.1
2017-03-04T16:56:47.688Z,45.1
2017-03-04T16:59:20.175Z,45.1
2017-03-04T17:01:52.708Z,45.2
2017-03-04T17:04:25.213Z,45.2
2017-03-04T17:06:57.689Z,45.2
2017-03-04T17:09:30.607Z,45.3
2017-03-04T17:12:03.090Z,45.4
2017-03-04T17:14:35.577Z,45.4
2017-03-04T17:17:08.048Z,45.3
2017-03-04T17:19:40.968Z,45.3
2017-03-04T17:22:13.462Z,45.3
2017-03-04T17:24:45.984Z,45.3
2017-03-04T17:27:18.876Z,45.3
2017-03-04T17:29:51.803Z,45.3
2017-03-04T17:32:24.285Z,45.3
2017-03-04T17:34:57.203Z,45.3
2017-03-04T17:37:29.692Z,45.3
2017-03-04T17:40:03.020Z,45.3
2017-03-04T17:42:35.519Z,45.3
2017-03-04T17:45:08.022Z,45.3
2017-03-04T17:47:40.515Z,45.4
2017-03-04T17:50:13.409Z,45.4
2017-03-04T17:52:45.892Z,45.4
2017-03-04T17:55:18.382Z,45.4
2017-03-04T17:57:50.883Z,45.5
2017-03-04T18:00:23.595Z,45.5
2017-03-04T18:02:56.512Z,45.5
2017-03-04T18:05:28.997Z,45.5
2017-03-04T18:08:01.941Z,45.6
2017-03-04T18:10:34.858Z,45.5
2017-03-04T18:13:07.325Z,45.6
2017-03-04T18:15:39.810Z,45.6
2017-03-04T18:18:12.325Z,45.6
2017-03-04T18:20:45.647Z,45.6
2017-03-04T18:23:18.145Z,45.6
2017-03-04T18:25:51.465Z,45.6
2017-03-04T18:28:23.959Z,45.6
2017-03-04T18:30:56.443Z,45.5
2017-03-04T18:33:28.949Z,45.5
2017-03-04T18:36:01.868Z,45.5
2017-03-04T18:38:34.357Z,45.5
2017-03-04T18:41:06.862Z,45.5
2017-03-04T18:43:39.351Z,45.4
2017-03-04T18:46:11.826Z,45.4
2017-03-04T18:48:45.159Z,45.4
2017-03-04T18:51:17.656Z,45.4
2017-03-04T18:53:50.136Z,45.4
2017-03-04T18:56:22.620Z,45.3
2017-03-04T18:58:55.121Z,45.3
2017-03-04T19:01:27.642Z,45.3
2017-03-04T19:04:00.153Z,45.3
2017-03-04T19:06:32.644Z,45.3
2017-03-04T19:09:05.130Z,45.3
2017-03-04T19:11:38.479Z,45.3
2017-03-04T19:14:11.387Z,45.3
2017-03-04T19:16:43.871Z,45.3
2017-03-04T19:19:16.374Z,45.2
2017-03-04T19:21:49.275Z,45.3
2017-03-04T19:24:21.784Z,45.3
2017-03-04T19:26:54.731Z,45.3
2017-03-04T19:29:27.210Z,45.3
2017-03-04T19:31:59.690Z,45.3
2017-03-04T19:34:32.182Z,45.3
2017-03-04T19:37:04.777Z,45.3
2017-03-04T19:39:37.250Z,45.3
2017-03-04T19:42:09.740Z,45.3
2017-03-04T19:44:42.688Z,45.3
2017-03-04T19:47:15.187Z,45.3
2017-03-04T19:49:48.113Z,45.4
2017-03-04T19:52:20.602Z,45.4
2017-03-04T19:54:53.298Z,45.4
2017-03-04T19:57:26.631Z,45.5
2017-03-04T19:59:59.140Z,45.5
2017-03-04T20:02:31.619Z,45.7
2017-03-04T20:05:04.529Z,45.6
2017-03-04T20:07:37.442Z,45.6
2017-03-04T20:10:09.945Z,45.6
2017-03-04T20:12:42.447Z,45.5
2017-03-04T20:15:14.949Z,45.5
2017-03-04T20:17:47.868Z,45.6
2017-03-04T20:20:21.387Z,45.6
2017-03-04T20:22:53.876Z,45.6
2017-03-04T20:25:26.381Z,45.7
2017-03-04T20:27:58.863Z,45.7
2017-03-04T20:30:31.386Z,45.8
2017-03-04T20:33:03.894Z,45.7
2017-03-04T20:35:36.387Z,45.8
2017-03-04T20:38:09.718Z,45.8
2017-03-04T20:40:42.640Z,45.8
2017-03-04T20:43:15.111Z,45.8
2017-03-04T20:45:48.003Z,45.8
2017-03-04T20:48:20.924Z,45.8
2017-03-04T20:50:53.387Z,45.8
2017-03-04T20:53:25.892Z,45.8
2017-03-04T20:55:58.782Z,45.8
2017-03-04T20:58:32.128Z,45.8
2017-03-04T21:01:04.636Z,45.8
2017-03-04T21:03:37.557Z,45.8
2017-03-04T21:06:10.053Z,45.8
2017-03-04T21:08:42.954Z,45.8
2017-03-04T21:11:15.446Z,45.9
2017-03-04T21:13:47.958Z,45.9
2017-03-04T21:16:21.298Z,45.8
2017-03-04T21:18:53.797Z,45.9
2017-03-04T21:21:26.722Z,45.9
2017-03-04T21:23:59.205Z,45.9
2017-03-04T21:26:32.546Z,45.9
2017-03-04T21:29:05.490Z,45.9
2017-03-04T21:31:37.996Z,46
2017-03-04T21:34:10.487Z,46
2017-03-04T21:36:42.984Z,46
2017-03-04T21:39:15.494Z,45.9
2017-03-04T21:41:48.419Z,46
2017-03-04T21:44:20.907Z,46
2017-03-04T21:46:53.416Z,46
2017-03-04T21:49:25.913Z,46
2017-03-04T21:51:58.453Z,46.1
2017-03-04T21:54:30.928Z,46.1
2017-03-04T21:57:03.438Z,46.1
2017-03-04T21:59:35.941Z,46
2017-03-04T22:02:08.443Z,46.1
2017-03-04T22:04:40.923Z,46
2017-03-04T22:07:13.395Z,46.1
2017-03-04T22:09:45.867Z,46
2017-03-04T22:12:18.354Z,46
2017-03-04T22:14:51.303Z,46
2017-03-04T22:17:23.789Z,46
2017-03-04T22:19:56.256Z,46
2017-03-04T22:22:28.755Z,46
2017-03-04T22:25:01.664Z,46
2017-03-04T22:27:35.005Z,46
2017-03-04T22:30:07.510Z,46
2017-03-04T22:32:40.405Z,46
2017-03-04T22:35:12.883Z,46
2017-03-04T22:37:45.384Z,46
2017-03-04T22:40:17.893Z,45.9
2017-03-04T22:42:50.378Z,45.9
2017-03-04T22:45:22.852Z,45.9
2017-03-04T22:47:55.328Z,45.9
2017-03-04T22:50:27.839Z,46
2017-03-04T22:53:00.327Z,45.9
2017-03-04T22:55:32.817Z,45.9
2017-03-04T22:58:05.299Z,45.9
2017-03-04T23:00:37.843Z,46
2017-03-04T23:03:10.338Z,45.9
2017-03-04T23:05:43.274Z,45.9
2017-03-04T23:08:16.205Z,45.9
2017-03-04T23:10:49.155Z,45.9
2017-03-04T23:13:21.678Z,45.9
2017-03-04T23:15:54.142Z,45.9
2017-03-04T23:18:26.647Z,45.9
2017-03-04T23:20:59.187Z,45.9
2017-03-04T23:23:31.673Z,45.9
2017-03-04T23:26:04.162Z,45.9
2017-03-04T23:28:36.692Z,45.9
2017-03-04T23:31:09.204Z,45.9
2017-03-04T23:33:41.686Z,45.9
2017-03-04T23:36:14.168Z,45.9
2017-03-04T23:38:46.683Z,45.9
2017-03-04T23:41:19.157Z,45.9
2017-03-04T23:43:52.094Z,45.9
2017-03-04T23:46:24.996Z,45.9
2017-03-04T23:48:57.503Z,45.9
2017-03-04T23:51:29.985Z,45.9
2017-03-04T23:54:02.889Z,45.9
2017-03-04T23:56:35.800Z,45.9
2017-03-04T23:59:08.299Z,45.9
